Time;durP1;ratioP1;P1;durP2;ratioP2;P2;SDS_P1;SDS_P2;PMS_P1;PMS_P2;Temp;Humidity;BMP_temperature;BMP_pressure;BME280_temperature;BME280_humidity;BME280_pressure;Samples;Min_cycle;Max_cycle;Signal;HPM_P1;HPM_P2
2023/08/27 00:01:49;;;;;;;;;;;19.30;56.20;;;;;;5029257;28;20514;-67
2023/08/27 00:04:15;;;;;;;;;;;19.30;56.30;;;;;;5020279;28;19917;-67
2023/08/27 00:06:40;;;;;;;;;;;19.30;56.40;;;;;;5029883;28;19967;-67
2023/08/27 00:09:06;;;;;;;;;;;19.30;56.70;;;;;;5031632;28;20008;-68
2023/08/27 00:11:32;;;;;;;;;;;19.20;57.10;;;;;;5028924;28;20340;-68
2023/08/27 00:13:57;;;;;;;;;;;19.30;57.40;;;;;;5031182;28;19916;-68
2023/08/27 00:16:23;;;;;;;;;;;19.20;57.30;;;;;;5030229;28;19917;-68
2023/08/27 00:18:48;;;;;;;;;;;19.20;57.40;;;;;;5031281;28;20284;-68
2023/08/27 00:21:14;;;;;;;;;;;19.20;57.20;;;;;;5028337;28;19921;-69
2023/08/27 00:23:42;;;;;;;;;;;19.20;56.90;;;;;;5027357;28;20289;-68
2023/08/27 00:26:07;;;;;;;;;;;19.20;56.90;;;;;;5021332;28;19917;-68
2023/08/27 00:28:33;;;;;;;;;;;19.20;56.90;;;;;;5030813;28;20372;-67
2023/08/27 00:31:04;;;;;;;;;;;19.20;56.90;;;;;;5030745;28;19913;-68
2023/08/27 00:33:30;;;;;;;;;;;19.20;57.00;;;;;;5028829;28;20673;-73
2023/08/27 00:35:55;;;;;;;;;;;19.10;57.40;;;;;;5031558;28;19913;-76
2023/08/27 00:38:21;;;;;;;;;;;19.20;57.40;;;;;;5031577;28;19913;-75
2023/08/27 00:40:46;;;;;;;;;;;19.20;57.30;;;;;;5031079;28;20303;-75
2023/08/27 00:43:12;;;;;;;;;;;19.20;57.20;;;;;;5031304;28;20281;-74
2023/08/27 00:45:37;;;;;;;;;;;19.20;57.00;;;;;;5030694;28;19964;-76
2023/08/27 00:48:03;;;;;;;;;;;19.20;56.90;;;;;;5031690;28;19925;-75
2023/08/27 00:50:30;;;;;;;;;;;19.10;56.90;;;;;;5033684;28;19917;-76
2023/08/27 00:52:56;;;;;;;;;;;19.10;57.30;;;;;;5033129;28;20419;-75
2023/08/27 00:55:22;;;;;;;;;;;19.00;57.40;;;;;;5035114;28;19920;-75
2023/08/27 00:57:49;;;;;;;;;;;19.00;57.40;;;;;;5033720;28;19923;-76
2023/08/27 01:00:15;;;;;;;;;;;18.90;57.40;;;;;;5032802;28;19913;-68
2023/08/27 01:02:42;;;;;;;;;;;18.80;57.60;;;;;;5034545;28;19917;-68
2023/08/27 01:05:08;;;;;;;;;;;18.80;58.10;;;;;;5034841;28;19924;-68
2023/08/27 01:07:39;;;;;;;;;;;18.80;58.50;;;;;;5034212;28;20284;-68
2023/08/27 01:10:22;;;;;;;;;;;18.80;58.70;;;;;;5034654;28;19956;-68
2023/08/27 01:12:56;;;;;;;;;;;18.70;58.70;;;;;;5032898;28;20020;-68
2023/08/27 01:15:22;;;;;;;;;;;18.70;58.60;;;;;;5034532;28;19968;-68
2023/08/27 01:17:47;;;;;;;;;;;18.60;58.40;;;;;;5034035;28;19913;-68
2023/08/27 01:20:14;;;;;;;;;;;18.60;58.40;;;;;;5033033;28;19913;-68
2023/08/27 01:22:40;;;;;;;;;;;18.50;58.30;;;;;;5034171;28;20470;-68
2023/08/27 01:25:06;;;;;;;;;;;18.50;58.40;;;;;;5034283;28;19917;-68
2023/08/27 01:27:36;;;;;;;;;;;18.50;58.40;;;;;;5032905;28;19928;-69
2023/08/27 01:30:07;;;;;;;;;;;18.50;58.30;;;;;;5034221;28;20331;-67
2023/08/27 01:32:36;;;;;;;;;;;18.40;58.20;;;;;;5033164;28;19952;-68
2023/08/27 01:35:03;;;;;;;;;;;18.40;58.10;;;;;;5028544;28;19921;-68
2023/08/27 01:37:29;;;;;;;;;;;18.30;58.10;;;;;;5025802;28;19953;-68
2023/08/27 01:39:59;;;;;;;;;;;18.30;58.00;;;;;;5014417;28;20365;-68
2023/08/27 01:42:24;;;;;;;;;;;18.30;58.00;;;;;;5032028;28;20007;-68
2023/08/27 01:44:50;;;;;;;;;;;18.20;58.20;;;;;;5033907;28;20432;-67
2023/08/27 01:47:16;;;;;;;;;;;18.20;58.10;;;;;;5033691;28;19924;-69
2023/08/27 01:49:41;;;;;;;;;;;18.10;58.00;;;;;;5033665;28;19917;-67
2023/08/27 01:52:07;;;;;;;;;;;18.00;58.10;;;;;;5033739;28;19913;-68
2023/08/27 01:54:33;;;;;;;;;;;18.00;58.10;;;;;;5033587;28;19913;-69
2023/08/27 01:56:58;;;;;;;;;;;17.90;58.00;;;;;;5033475;28;19913;-68
2023/08/27 01:59:24;;;;;;;;;;;17.80;58.10;;;;;;5032844;28;20004;-68
2023/08/27 02:01:49;;;;;;;;;;;17.80;58.10;;;;;;5032946;28;19921;-68
2023/08/27 02:04:15;;;;;;;;;;;17.80;58.10;;;;;;5033415;28;19917;-68
2023/08/27 02:06:40;;;;;;;;;;;17.80;58.30;;;;;;5033462;28;19920;-68
2023/08/27 02:09:06;;;;;;;;;;;17.70;58.60;;;;;;5033486;28;20383;-68
2023/08/27 02:11:31;;;;;;;;;;;17.70;58.60;;;;;;5033302;28;19933;-68
2023/08/27 02:13:57;;;;;;;;;;;17.60;58.60;;;;;;5033264;28;19916;-68
2023/08/27 02:16:22;;;;;;;;;;;17.60;58.60;;;;;;5033008;28;19983;-68
2023/08/27 02:18:48;;;;;;;;;;;17.50;58.90;;;;;;5033040;28;19909;-68
2023/08/27 02:21:13;;;;;;;;;;;17.50;58.90;;;;;;5033110;28;19919;-68
2023/08/27 02:23:39;;;;;;;;;;;17.50;59.10;;;;;;5033168;28;19913;-67
2023/08/27 02:26:04;;;;;;;;;;;17.50;59.20;;;;;;5033286;28;19921;-68
2023/08/27 02:28:30;;;;;;;;;;;17.50;59.50;;;;;;5032712;28;19917;-69
2023/08/27 02:30:55;;;;;;;;;;;17.40;59.50;;;;;;5033229;28;19913;-68
2023/08/27 02:33:21;;;;;;;;;;;17.40;59.30;;;;;;5031693;28;19920;-68
2023/08/27 02:35:47;;;;;;;;;;;17.40;59.20;;;;;;5033063;28;19917;-68
2023/08/27 02:38:13;;;;;;;;;;;17.40;59.20;;;;;;5032929;28;20325;-68
2023/08/27 02:40:39;;;;;;;;;;;17.40;59.10;;;;;;5033040;28;20280;-68
2023/08/27 02:43:04;;;;;;;;;;;17.40;59.30;;;;;;5032574;28;19913;-68
2023/08/27 02:45:30;;;;;;;;;;;17.40;59.40;;;;;;5032151;28;19928;-69
2023/08/27 02:47:55;;;;;;;;;;;17.40;59.40;;;;;;5031091;28;19959;-68
2023/08/27 02:50:21;;;;;;;;;;;17.40;59.30;;;;;;5032267;28;20289;-68
2023/08/27 02:52:47;;;;;;;;;;;17.40;59.30;;;;;;5032300;28;19967;-68
2023/08/27 02:55:12;;;;;;;;;;;17.40;59.30;;;;;;5032870;28;19913;-69
2023/08/27 02:57:38;;;;;;;;;;;17.40;59.50;;;;;;5032161;28;19913;-68
2023/08/27 03:00:04;;;;;;;;;;;17.40;59.70;;;;;;5032294;28;19923;-68
2023/08/27 03:02:29;;;;;;;;;;;17.40;59.90;;;;;;5032210;28;20265;-68
2023/08/27 03:04:56;;;;;;;;;;;17.40;59.90;;;;;;5032516;28;19924;-68
2023/08/27 03:07:22;;;;;;;;;;;17.40;59.90;;;;;;5032244;28;19913;-68
2023/08/27 03:09:48;;;;;;;;;;;17.30;59.80;;;;;;5032359;28;20372;-68
2023/08/27 03:12:13;;;;;;;;;;;17.40;59.90;;;;;;5032034;28;19920;-69
2023/08/27 03:14:39;;;;;;;;;;;17.40;59.90;;;;;;5032411;28;19952;-68
2023/08/27 03:17:04;;;;;;;;;;;17.40;59.80;;;;;;5032064;28;19917;-68
2023/08/27 03:19:30;;;;;;;;;;;17.40;59.70;;;;;;5031849;28;19917;-68
2023/08/27 03:21:55;;;;;;;;;;;17.30;59.60;;;;;;5032123;28;19913;-68
2023/08/27 03:24:21;;;;;;;;;;;17.30;59.70;;;;;;5031870;28;20372;-68
2023/08/27 03:26:48;;;;;;;;;;;17.30;59.70;;;;;;5031875;28;19914;-68
2023/08/27 03:29:14;;;;;;;;;;;17.30;59.70;;;;;;5031035;28;20054;-68
2023/08/27 03:31:39;;;;;;;;;;;17.30;59.70;;;;;;5032043;28;20012;-68
2023/08/27 03:34:05;;;;;;;;;;;17.40;59.70;;;;;;5031832;28;19928;-68
2023/08/27 03:36:30;;;;;;;;;;;17.40;59.70;;;;;;5031685;28;19920;-69
2023/08/27 03:38:57;;;;;;;;;;;17.40;59.80;;;;;;5031863;28;19921;-69
2023/08/27 03:41:22;;;;;;;;;;;17.50;59.90;;;;;;5031733;28;19913;-68
2023/08/27 03:43:47;;;;;;;;;;;17.50;60.20;;;;;;5031603;28;20369;-69
2023/08/27 03:46:13;;;;;;;;;;;17.50;60.30;;;;;;5031822;28;20341;-69
2023/08/27 03:48:39;;;;;;;;;;;17.60;60.30;;;;;;5030603;28;19916;-68
2023/08/27 03:51:04;;;;;;;;;;;17.60;60.40;;;;;;5031667;28;19971;-68
2023/08/27 03:53:29;;;;;;;;;;;17.60;60.40;;;;;;5030291;28;19917;-70
2023/08/27 03:55:55;;;;;;;;;;;17.50;60.30;;;;;;5032211;28;19913;-69
2023/08/27 03:58:20;;;;;;;;;;;17.50;60.30;;;;;;5031401;28;19996;-68
2023/08/27 04:00:46;;;;;;;;;;;17.50;60.20;;;;;;5031879;28;19920;-69
2023/08/27 04:03:12;;;;;;;;;;;17.50;60.20;;;;;;5031432;28;20318;-69
2023/08/27 04:05:38;;;;;;;;;;;17.50;60.10;;;;;;5031399;28;19948;-69
2023/08/27 04:08:03;;;;;;;;;;;17.40;60.00;;;;;;5031347;28;20424;-68
2023/08/27 04:10:29;;;;;;;;;;;17.40;60.10;;;;;;5031333;28;19964;-68
2023/08/27 04:12:56;;;;;;;;;;;17.30;60.20;;;;;;5031393;28;19971;-69
2023/08/27 04:15:21;;;;;;;;;;;17.30;60.30;;;;;;5031337;28;20387;-69
2023/08/27 04:17:47;;;;;;;;;;;17.30;60.50;;;;;;5029901;28;19999;-69
2023/08/27 04:20:12;;;;;;;;;;;17.30;60.60;;;;;;5031953;28;20372;-69
2023/08/27 04:22:37;;;;;;;;;;;17.30;60.70;;;;;;5031127;28;19913;-68
2023/08/27 04:25:03;;;;;;;;;;;17.20;60.80;;;;;;5035204;28;19924;-69
2023/08/27 04:27:29;;;;;;;;;;;17.20;60.70;;;;;;5033829;28;19913;-68
2023/08/27 04:29:54;;;;;;;;;;;17.20;60.60;;;;;;5035284;28;20270;-68
2023/08/27 04:32:20;;;;;;;;;;;17.10;60.50;;;;;;5035493;28;20292;-67
2023/08/27 04:34:45;;;;;;;;;;;17.10;60.50;;;;;;5035448;28;19979;-68
2023/08/27 04:37:11;;;;;;;;;;;17.10;60.50;;;;;;5035160;28;19960;-68
2023/08/27 04:39:36;;;;;;;;;;;17.10;60.60;;;;;;5035156;28;20003;-69
2023/08/27 04:42:01;;;;;;;;;;;17.10;60.60;;;;;;5033568;28;19917;-69
2023/08/27 04:44:27;;;;;;;;;;;17.10;60.60;;;;;;5033374;28;19917;-69
2023/08/27 04:46:53;;;;;;;;;;;17.10;60.60;;;;;;5034881;28;20008;-69
2023/08/27 04:49:19;;;;;;;;;;;17.10;60.70;;;;;;5033216;28;19948;-68
2023/08/27 04:51:44;;;;;;;;;;;17.00;60.80;;;;;;5035023;28;19917;-68
2023/08/27 04:54:09;;;;;;;;;;;17.10;61.00;;;;;;5034738;28;19909;-69
2023/08/27 04:56:35;;;;;;;;;;;17.10;61.20;;;;;;5034617;28;20495;-69
2023/08/27 04:59:00;;;;;;;;;;;17.20;61.20;;;;;;5034739;28;20361;-69
2023/08/27 05:01:26;;;;;;;;;;;17.20;61.20;;;;;;5034526;28;20365;-69
2023/08/27 05:03:51;;;;;;;;;;;17.30;61.20;;;;;;5034521;28;19909;-68
2023/08/27 05:06:17;;;;;;;;;;;17.30;61.10;;;;;;5034307;28;20288;-69
2023/08/27 05:08:42;;;;;;;;;;;17.30;61.20;;;;;;5034601;28;19909;-69
2023/08/27 05:11:08;;;;;;;;;;;17.30;61.20;;;;;;5034998;28;20034;-69
2023/08/27 05:13:34;;;;;;;;;;;17.30;61.40;;;;;;5034310;28;19917;-68
2023/08/27 05:15:59;;;;;;;;;;;17.40;61.40;;;;;;5034846;28;19992;-68
2023/08/27 05:18:24;;;;;;;;;;;17.50;61.40;;;;;;5032838;28;19967;-69
2023/08/27 05:20:50;;;;;;;;;;;17.50;61.30;;;;;;5034802;28;19921;-69
2023/08/27 05:23:17;;;;;;;;;;;17.50;61.30;;;;;;5034520;28;19917;-69
2023/08/27 05:25:44;;;;;;;;;;;17.60;61.30;;;;;;5034547;28;19913;-69
2023/08/27 05:28:09;;;;;;;;;;;17.70;61.40;;;;;;5032733;28;19956;-69
2023/08/27 05:30:34;;;;;;;;;;;17.70;61.40;;;;;;5032718;28;19959;-69
2023/08/27 05:33:00;;;;;;;;;;;17.80;61.30;;;;;;5033998;28;19917;-69
2023/08/27 05:35:25;;;;;;;;;;;17.90;61.40;;;;;;5022338;28;19972;-69
2023/08/27 05:37:51;;;;;;;;;;;17.90;61.60;;;;;;5021583;28;19917;-69
2023/08/27 05:40:16;;;;;;;;;;;18.00;61.60;;;;;;5032234;28;20389;-70
2023/08/27 05:42:42;;;;;;;;;;;18.10;61.60;;;;;;5033946;28;20353;-69
2023/08/27 05:45:07;;;;;;;;;;;18.20;61.70;;;;;;5033883;28;19921;-69
2023/08/27 05:47:33;;;;;;;;;;;18.30;61.70;;;;;;5032333;28;19913;-69
2023/08/27 05:49:58;;;;;;;;;;;18.30;61.70;;;;;;5033388;28;19960;-69
2023/08/27 05:52:24;;;;;;;;;;;18.40;61.80;;;;;;5033554;28;19970;-69
2023/08/27 05:54:49;;;;;;;;;;;18.40;61.90;;;;;;5033683;28;19936;-70
2023/08/27 05:57:16;;;;;;;;;;;18.50;62.20;;;;;;5030997;28;19917;-69
2023/08/27 05:59:41;;;;;;;;;;;18.70;62.30;;;;;;5013759;28;19910;-70
2023/08/27 06:02:09;;;;;;;;;;;18.80;62.40;;;;;;5016553;28;20396;-69
2023/08/27 06:04:34;;;;;;;;;;;19.00;62.30;;;;;;5033336;28;19969;-69
2023/08/27 06:07:00;;;;;;;;;;;19.20;62.20;;;;;;5030059;28;20381;-69
2023/08/27 06:09:25;;;;;;;;;;;19.20;61.90;;;;;;5013573;28;19945;-69
2023/08/27 06:11:51;;;;;;;;;;;19.30;61.50;;;;;;5013550;28;19941;-69
2023/08/27 06:14:17;;;;;;;;;;;19.30;61.20;;;;;;5013636;28;19913;-70
2023/08/27 06:16:43;;;;;;;;;;;19.30;61.10;;;;;;5011945;28;19988;-70
2023/08/27 06:19:09;;;;;;;;;;;19.40;61.10;;;;;;5018291;28;19949;-69
2023/08/27 06:21:34;;;;;;;;;;;19.50;61.30;;;;;;5032896;28;20341;-70
2023/08/27 06:23:59;;;;;;;;;;;19.80;62.50;;;;;;5033126;28;19948;-70
2023/08/27 06:26:25;;;;;;;;;;;20.30;63.10;;;;;;5032721;28;19932;-70
2023/08/27 06:28:50;;;;;;;;;;;20.70;63.20;;;;;;5032747;28;19955;-70
2023/08/27 06:31:16;;;;;;;;;;;21.20;63.50;;;;;;5033101;28;20374;-70
2023/08/27 06:33:41;;;;;;;;;;;21.90;64.50;;;;;;5031493;28;19909;-69
2023/08/27 06:36:07;;;;;;;;;;;22.80;65.10;;;;;;5033157;28;20353;-69
2023/08/27 06:38:32;;;;;;;;;;;23.80;64.60;;;;;;5015951;28;20393;-69
2023/08/27 06:40:58;;;;;;;;;;;24.70;62.60;;;;;;5014568;28;19914;-74
2023/08/27 06:43:23;;;;;;;;;;;25.60;60.40;;;;;;5013619;28;19968;-69
2023/08/27 06:45:49;;;;;;;;;;;26.40;58.50;;;;;;5019657;28;20678;-69
2023/08/27 06:48:15;;;;;;;;;;;27.20;56.20;;;;;;5029913;28;19917;-69
2023/08/27 06:50:41;;;;;;;;;;;27.80;54.30;;;;;;5032442;28;19917;-68
2023/08/27 06:53:06;;;;;;;;;;;28.50;52.80;;;;;;5031480;28;20315;-69
2023/08/27 06:55:32;;;;;;;;;;;29.20;51.50;;;;;;5032677;28;20012;-69
2023/08/27 06:57:58;;;;;;;;;;;29.90;49.60;;;;;;5031272;28;19935;-69
2023/08/27 07:00:25;;;;;;;;;;;30.50;45.70;;;;;;5032737;28;19919;-69
2023/08/27 07:02:50;;;;;;;;;;;30.80;43.80;;;;;;5032320;28;20364;-71
2023/08/27 07:05:16;;;;;;;;;;;31.20;42.40;;;;;;5032894;28;19967;-69
2023/08/27 07:07:42;;;;;;;;;;;31.60;41.70;;;;;;5021050;28;19917;-69
2023/08/27 07:10:08;;;;;;;;;;;31.90;39.80;;;;;;5012460;28;19914;-69
2023/08/27 07:12:33;;;;;;;;;;;32.20;38.40;;;;;;5012489;28;20352;-69
2023/08/27 07:15:00;;;;;;;;;;;32.60;38.20;;;;;;5028584;28;19913;-69
2023/08/27 07:17:25;;;;;;;;;;;33.00;36.90;;;;;;5032162;28;19913;-69
2023/08/27 07:19:51;;;;;;;;;;;33.30;35.70;;;;;;5032069;28;19913;-67
2023/08/27 07:22:16;;;;;;;;;;;33.70;34.80;;;;;;5032263;28;19921;-69
2023/08/27 07:24:42;;;;;;;;;;;33.90;32.70;;;;;;5032055;28;19979;-66
2023/08/27 07:27:09;;;;;;;;;;;33.80;32.30;;;;;;5031981;28;20395;-69
2023/08/27 07:29:35;;;;;;;;;;;33.50;31.60;;;;;;5031803;28;19913;-69
2023/08/27 07:32:00;;;;;;;;;;;32.90;31.60;;;;;;5031760;28;19917;-67
2023/08/27 07:34:25;;;;;;;;;;;32.40;32.30;;;;;;5031784;28;19913;-68
2023/08/27 07:36:52;;;;;;;;;;;32.00;32.90;;;;;;5032016;28;20000;-67
2023/08/27 07:39:18;;;;;;;;;;;31.70;33.50;;;;;;5032121;28;20019;-67
2023/08/27 07:41:44;;;;;;;;;;;31.50;34.00;;;;;;5031778;28;20357;-68
2023/08/27 07:44:09;;;;;;;;;;;31.30;34.30;;;;;;5031814;28;19913;-66
2023/08/27 07:46:35;;;;;;;;;;;31.20;34.60;;;;;;5031521;28;19920;-68
2023/08/27 07:49:00;;;;;;;;;;;31.20;34.70;;;;;;5031725;28;19984;-68
2023/08/27 07:51:26;;;;;;;;;;;31.30;34.90;;;;;;5031668;28;20357;-69
2023/08/27 07:53:51;;;;;;;;;;;31.60;35.30;;;;;;5031887;28;19996;-67
2023/08/27 07:56:17;;;;;;;;;;;32.00;34.60;;;;;;5031790;28;19921;-67
2023/08/27 07:58:42;;;;;;;;;;;32.30;34.60;;;;;;5034953;28;20004;-67
2023/08/27 08:01:08;;;;;;;;;;;32.70;33.70;;;;;;5037077;28;20373;-67
2023/08/27 08:03:33;;;;;;;;;;;32.80;32.80;;;;;;5036053;28;19978;-78
2023/08/27 08:05:59;;;;;;;;;;;32.70;32.30;;;;;;5036399;28;19917;-78
2023/08/27 08:08:25;;;;;;;;;;;32.50;32.20;;;;;;5035735;28;19914;-79
2023/08/27 08:10:53;;;;;;;;;;;32.20;32.40;;;;;;5036115;28;19948;-78
2023/08/27 08:13:19;;;;;;;;;;;31.80;32.10;;;;;;5035692;28;19913;-78
2023/08/27 08:15:46;;;;;;;;;;;31.40;32.70;;;;;;5035866;28;20375;-78
2023/08/27 08:18:12;;;;;;;;;;;31.00;33.20;;;;;;5035393;28;19917;-77
2023/08/27 08:20:38;;;;;;;;;;;30.50;33.30;;;;;;5035762;28;20385;-76
2023/08/27 08:23:04;;;;;;;;;;;29.90;35.10;;;;;;5036266;28;19936;-73
2023/08/27 08:25:31;;;;;;;;;;;28.80;44.50;;;;;;5035343;28;19917;-67
2023/08/27 08:27:56;;;;;;;;;;;27.50;49.00;;;;;;5035300;28;19913;-69
2023/08/27 08:30:22;;;;;;;;;;;26.30;53.70;;;;;;5023081;28;20293;-70
2023/08/27 08:32:47;;;;;;;;;;;25.50;56.80;;;;;;5014597;28;19913;-70
2023/08/27 08:35:13;;;;;;;;;;;24.80;58.80;;;;;;5015625;28;19924;-69
2023/08/27 08:37:38;;;;;;;;;;;24.30;60.60;;;;;;5015192;28;19920;-69
2023/08/27 08:40:04;;;;;;;;;;;23.90;61.80;;;;;;5015457;28;19913;-69
2023/08/27 08:42:32;;;;;;;;;;;23.50;63.10;;;;;;5015116;28;20016;-71
2023/08/27 08:45:05;;;;;;;;;;;23.20;64.50;;;;;;5021558;28;19924;-71
2023/08/27 08:47:32;;;;;;;;;;;23.00;65.20;;;;;;5034818;28;20458;-72
2023/08/27 08:49:58;;;;;;;;;;;22.80;66.00;;;;;;5034693;28;19971;-73
2023/08/27 08:52:26;;;;;;;;;;;22.70;66.30;;;;;;5034759;28;19913;-72
2023/08/27 08:54:52;;;;;;;;;;;22.60;66.40;;;;;;5035101;28;19964;-73
2023/08/27 08:57:18;;;;;;;;;;;22.50;67.30;;;;;;5034762;28;19913;-73
2023/08/27 08:59:44;;;;;;;;;;;22.50;67.60;;;;;;5025927;28;20043;-73
2023/08/27 09:02:13;;;;;;;;;;;22.40;67.00;;;;;;5034789;28;19956;-73
2023/08/27 09:04:39;;;;;;;;;;;22.20;66.70;;;;;;5034545;28;20004;-75
2023/08/27 09:07:05;;;;;;;;;;;22.10;66.60;;;;;;5034567;28;19928;-75
2023/08/27 09:09:31;;;;;;;;;;;22.00;67.20;;;;;;5033726;28;19913;-74
2023/08/27 09:11:58;;;;;;;;;;;21.80;67.70;;;;;;5034648;28;19980;-73
2023/08/27 09:14:24;;;;;;;;;;;21.80;67.90;;;;;;5023182;28;19913;-73
2023/08/27 09:16:50;;;;;;;;;;;21.80;68.10;;;;;;5014710;28;20399;-74
2023/08/27 09:19:16;;;;;;;;;;;21.70;68.10;;;;;;5014621;28;19966;-74
2023/08/27 09:21:41;;;;;;;;;;;21.60;68.00;;;;;;5018010;28;19917;-75
2023/08/27 09:24:07;;;;;;;;;;;21.60;67.90;;;;;;5034107;28;20272;-76
2023/08/27 09:26:33;;;;;;;;;;;21.50;68.20;;;;;;5033775;28;19921;-75
2023/08/27 09:28:59;;;;;;;;;;;21.60;69.50;;;;;;5032006;28;20388;-76
2023/08/27 09:31:40;;;;;;;;;;;21.80;70.60;;;;;;5014257;28;20008;-74
2023/08/27 09:34:06;;;;;;;;;;;22.00;70.70;;;;;;5018219;28;19952;-76
2023/08/27 09:36:33;;;;;;;;;;;22.30;70.80;;;;;;5022970;28;19952;-76
2023/08/27 09:39:03;;;;;;;;;;;22.50;70.40;;;;;;5020599;28;20416;-76
2023/08/27 09:41:30;;;;;;;;;;;22.60;70.80;;;;;;5015114;28;19971;-75
2023/08/27 09:43:56;;;;;;;;;;;22.80;70.60;;;;;;5017749;28;19963;-76
2023/08/27 09:46:21;;;;;;;;;;;22.90;70.70;;;;;;5018467;28;19925;-78
2023/08/27 09:49:00;;;;;;;;;;;23.10;70.20;;;;;;5013042;28;20436;-76
2023/08/27 09:51:26;;;;;;;;;;;23.30;70.30;;;;;;5013152;28;19921;-75
2023/08/27 09:53:59;;;;;;;;;;;23.50;70.10;;;;;;5012449;28;19993;-75
2023/08/27 09:56:26;;;;;;;;;;;23.60;69.80;;;;;;5019540;28;19913;-75
2023/08/27 09:58:55;;;;;;;;;;;23.60;70.00;;;;;;5031340;28;20285;-75
2023/08/27 10:01:32;;;;;;;;;;;23.70;69.40;;;;;;5032709;28;20403;-75
2023/08/27 10:04:00;;;;;;;;;;;23.50;69.20;;;;;;5030711;28;19949;-74
2023/08/27 10:06:33;;;;;;;;;;;23.50;68.70;;;;;;5031017;28;19928;-74
2023/08/27 10:08:58;;;;;;;;;;;23.50;68.40;;;;;;5023626;28;20026;-74
2023/08/27 10:11:24;;;;;;;;;;;23.40;68.60;;;;;;5029723;28;19949;-74
2023/08/27 10:13:51;;;;;;;;;;;23.40;69.10;;;;;;5032563;28;19917;-74
2023/08/27 10:16:17;;;;;;;;;;;23.50;70.00;;;;;;5032952;28;19913;-74
2023/08/27 10:18:43;;;;;;;;;;;23.70;70.30;;;;;;5032604;28;20339;-74
2023/08/27 10:21:09;;;;;;;;;;;23.80;70.10;;;;;;5033605;28;19913;-74
2023/08/27 10:23:36;;;;;;;;;;;23.90;69.70;;;;;;5031883;28;20164;-72
2023/08/27 10:26:02;;;;;;;;;;;23.90;69.40;;;;;;5030817;28;19917;-71
2023/08/27 10:28:29;;;;;;;;;;;24.00;69.60;;;;;;5017006;28;19925;-71
2023/08/27 10:30:55;;;;;;;;;;;24.10;69.00;;;;;;5011604;28;20337;-71
2023/08/27 10:33:20;;;;;;;;;;;24.20;69.00;;;;;;5011413;28;19917;-71
2023/08/27 10:35:47;;;;;;;;;;;24.10;68.50;;;;;;5011218;28;19967;-71
2023/08/27 10:38:13;;;;;;;;;;;24.10;68.40;;;;;;5012357;28;19956;-72
2023/08/27 10:40:39;;;;;;;;;;;24.10;68.50;;;;;;5011544;28;19961;-72
2023/08/27 10:43:08;;;;;;;;;;;24.00;68.20;;;;;;5014839;28;19921;-71
2023/08/27 10:45:38;;;;;;;;;;;23.90;68.20;;;;;;5022997;28;20349;-71
2023/08/27 10:48:07;;;;;;;;;;;23.80;68.10;;;;;;5025915;28;20292;-73
2023/08/27 10:50:49;;;;;;;;;;;23.80;68.10;;;;;;5015631;28;19925;-71
2023/08/27 10:53:15;;;;;;;;;;;23.80;68.20;;;;;;5015812;28;19920;-71
2023/08/27 10:55:43;;;;;;;;;;;23.70;68.30;;;;;;5030953;28;20276;-72
2023/08/27 10:58:13;;;;;;;;;;;23.70;68.90;;;;;;5029321;28;19913;-72
2023/08/27 11:01:00;;;;;;;;;;;23.70;68.90;;;;;;5030664;28;20000;-72
2023/08/27 11:03:25;;;;;;;;;;;23.60;68.60;;;;;;5021824;28;19913;-72
2023/08/27 11:06:10;;;;;;;;;;;23.50;68.20;;;;;;5012688;28;19917;-72
2023/08/27 11:08:35;;;;;;;;;;;23.50;68.10;;;;;;5011877;28;19925;-72
2023/08/27 11:11:11;;;;;;;;;;;23.30;67.80;;;;;;5021232;28;19921;-72
2023/08/27 11:13:37;;;;;;;;;;;23.30;68.30;;;;;;5011798;28;20385;-71
2023/08/27 11:16:10;;;;;;;;;;;23.40;68.50;;;;;;5025179;28;19951;-71
2023/08/27 11:18:56;;;;;;;;;;;23.40;68.30;;;;;;5010544;28;19913;-72
2023/08/27 11:21:24;;;;;;;;;;;23.40;69.10;;;;;;5011878;28;19917;-72
2023/08/27 11:24:08;;;;;;;;;;;23.50;69.40;;;;;;5011926;28;20515;-71
2023/08/27 11:26:34;;;;;;;;;;;23.70;69.10;;;;;;5014153;28;20353;-71
2023/08/27 11:29:00;;;;;;;;;;;23.70;70.10;;;;;;5030119;28;20118;-71
2023/08/27 11:31:26;;;;;;;;;;;23.80;69.80;;;;;;5026767;28;19924;-71
2023/08/27 11:33:52;;;;;;;;;;;24.00;69.40;;;;;;5028755;28;19910;-71
2023/08/27 11:36:18;;;;;;;;;;;24.00;68.90;;;;;;5028980;28;20327;-71
2023/08/27 11:38:43;;;;;;;;;;;24.10;69.20;;;;;;5029847;28;19909;-71
2023/08/27 11:41:09;;;;;;;;;;;24.20;68.90;;;;;;5030378;28;19920;-71
2023/08/27 11:43:35;;;;;;;;;;;24.30;69.50;;;;;;5058809;28;20362;-71
2023/08/27 11:46:00;;;;;;;;;;;24.50;69.10;;;;;;5025675;28;19928;-71
2023/08/27 11:48:28;;;;;;;;;;;24.60;69.10;;;;;;5024479;28;20404;-72
2023/08/27 11:50:53;;;;;;;;;;;24.70;69.30;;;;;;5027781;28;19968;-72
2023/08/27 11:53:19;;;;;;;;;;;24.90;69.40;;;;;;5026265;28;19917;-72
2023/08/27 11:55:44;;;;;;;;;;;25.10;69.10;;;;;;5027188;28;19922;-71
2023/08/27 11:58:10;;;;;;;;;;;25.30;68.60;;;;;;5019571;28;19931;-73
2023/08/27 12:00:41;;;;;;;;;;;25.50;68.30;;;;;;5013934;28;19917;-72
2023/08/27 12:03:06;;;;;;;;;;;25.60;68.40;;;;;;5028954;28;19924;-72
2023/08/27 12:05:33;;;;;;;;;;;25.80;67.70;;;;;;5017424;28;20344;-72
2023/08/27 12:08:04;;;;;;;;;;;25.90;67.80;;;;;;5013882;28;19917;-72
2023/08/27 12:10:32;;;;;;;;;;;26.10;67.50;;;;;;5012734;28;20117;-73
2023/08/27 12:12:58;;;;;;;;;;;26.30;66.30;;;;;;5011543;28;20416;-71
2023/08/27 12:15:30;;;;;;;;;;;26.40;64.20;;;;;;5030119;28;20384;-72
2023/08/27 12:17:55;;;;;;;;;;;26.40;65.60;;;;;;5016630;28;19968;-72
2023/08/27 12:20:34;;;;;;;;;;;26.70;67.70;;;;;;5010153;28;20369;-72
2023/08/27 12:23:10;;;;;;;;;;;27.20;68.50;;;;;;5012641;28;19947;-73
2023/08/27 12:25:52;;;;;;;;;;;27.60;67.90;;;;;;5009812;28;19926;-73
2023/08/27 12:28:18;;;;;;;;;;;27.80;63.80;;;;;;5010968;28;19918;-73
2023/08/27 12:30:50;;;;;;;;;;;27.80;63.80;;;;;;5009985;28;19913;-73
2023/08/27 12:33:16;;;;;;;;;;;27.80;63.70;;;;;;5009993;28;20376;-73
2023/08/27 12:35:45;;;;;;;;;;;27.90;64.20;;;;;;5023890;28;19921;-73
2023/08/27 12:38:10;;;;;;;;;;;28.10;64.00;;;;;;5029430;28;19964;-73
2023/08/27 12:40:36;;;;;;;;;;;28.30;63.70;;;;;;5024519;28;19959;-73
2023/08/27 12:43:04;;;;;;;;;;;28.60;64.00;;;;;;5028501;28;19905;-79
2023/08/27 12:45:29;;;;;;;;;;;28.80;62.00;;;;;;5042730;28;19933;-76
2023/08/27 12:47:55;;;;;;;;;;;28.90;60.80;;;;;;5039462;28;19918;-78
2023/08/27 12:50:21;;;;;;;;;;;29.00;60.70;;;;;;5042714;28;19921;-80
2023/08/27 12:52:47;;;;;;;;;;;29.00;60.50;;;;;;5037989;28;19952;-80
2023/08/27 12:55:13;;;;;;;;;;;29.20;58.40;;;;;;5036076;28;19917;-76
2023/08/27 12:57:41;;;;;;;;;;;29.20;57.50;;;;;;5038325;28;19932;-79
2023/08/27 13:00:08;;;;;;;;;;;29.30;56.10;;;;;;5039188;28;19914;-77
2023/08/27 13:02:35;;;;;;;;;;;29.30;57.70;;;;;;5040147;28;19984;-75
2023/08/27 13:05:03;;;;;;;;;;;29.50;57.80;;;;;;5042805;28;20009;-77
2023/08/27 13:07:28;;;;;;;;;;;29.80;55.20;;;;;;5038484;28;19971;-77
2023/08/27 13:09:55;;;;;;;;;;;29.80;52.70;;;;;;5043251;28;19913;-77
2023/08/27 13:12:20;;;;;;;;;;;29.70;50.40;;;;;;5044110;28;19928;-77
2023/08/27 13:14:46;;;;;;;;;;;29.60;48.70;;;;;;5032613;28;19941;-78
2023/08/27 13:17:11;;;;;;;;;;;29.50;49.10;;;;;;5037666;28;19924;-78
2023/08/27 13:19:37;;;;;;;;;;;29.50;48.10;;;;;;5049867;28;19913;-78
2023/08/27 13:22:03;;;;;;;;;;;29.50;47.60;;;;;;5048068;28;19967;-78
2023/08/27 13:24:28;;;;;;;;;;;29.60;45.90;;;;;;5046203;28;19980;-78
2023/08/27 13:26:53;;;;;;;;;;;29.60;44.80;;;;;;5047542;28;19913;-77
2023/08/27 13:29:19;;;;;;;;;;;29.60;43.60;;;;;;5046310;28;20316;-77
2023/08/27 13:31:45;;;;;;;;;;;29.50;45.20;;;;;;5045274;28;19921;-74
2023/08/27 13:34:11;;;;;;;;;;;29.60;45.40;;;;;;5046867;28;19913;-78
2023/08/27 13:36:36;;;;;;;;;;;29.60;44.00;;;;;;5045163;28;19939;-77
2023/08/27 13:39:02;;;;;;;;;;;29.60;43.80;;;;;;5040977;28;20408;-77
2023/08/27 13:41:27;;;;;;;;;;;29.70;45.50;;;;;;5043254;28;19918;-78
2023/08/27 13:43:53;;;;;;;;;;;29.80;46.30;;;;;;5042968;28;19910;-76
2023/08/27 13:46:18;;;;;;;;;;;30.00;46.10;;;;;;5039854;28;19948;-77
2023/08/27 13:48:44;;;;;;;;;;;30.10;42.20;;;;;;5042675;28;20282;-76
2023/08/27 13:51:10;;;;;;;;;;;30.00;42.50;;;;;;5039759;28;19917;-76
2023/08/27 13:53:35;;;;;;;;;;;30.00;42.70;;;;;;5032314;28;19920;-70
2023/08/27 13:56:00;;;;;;;;;;;30.00;43.00;;;;;;5030967;28;19924;-70
2023/08/27 13:58:26;;;;;;;;;;;30.10;41.50;;;;;;5032222;28;20004;-69
2023/08/27 14:00:52;;;;;;;;;;;30.00;40.40;;;;;;5031777;28;20027;-70
2023/08/27 14:03:17;;;;;;;;;;;29.70;39.90;;;;;;5033287;28;19935;-70
2023/08/27 14:05:43;;;;;;;;;;;29.50;40.70;;;;;;5033160;28;19924;-69
2023/08/27 14:08:08;;;;;;;;;;;29.30;38.60;;;;;;5033300;28;19913;-69
2023/08/27 14:10:40;;;;;;;;;;;29.10;39.00;;;;;;5031519;28;19913;-69
2023/08/27 14:13:06;;;;;;;;;;;29.00;39.30;;;;;;5031798;28;20480;-69